createdAt,value
2023-03-13T00:00:13.815Z,12.05
2023-03-13T00:03:55.986Z,11.57
2023-03-13T00:07:37.974Z,12.35
2023-03-13T00:11:19.960Z,10.88
2023-03-13T00:15:01.925Z,10.95
2023-03-13T00:18:49.292Z,9.57
2023-03-13T00:22:31.251Z,7.53
2023-03-13T00:26:16.823Z,11.40
2023-03-13T00:29:58.784Z,10.55
2023-03-13T00:33:43.374Z,10.32
2023-03-13T00:37:25.337Z,8.10
2023-03-13T00:41:12.157Z,11.23
2023-03-13T00:44:54.120Z,3.88
2023-03-13T00:48:36.508Z,4.57
2023-03-13T00:52:18.529Z,5.35
2023-03-13T00:56:06.684Z,6.38
2023-03-13T00:59:48.673Z,6.18
2023-03-13T01:03:30.651Z,6.07
2023-03-13T01:07:12.621Z,3.83
2023-03-13T01:11:02.131Z,5.85
2023-03-13T01:14:44.118Z,3.13
2023-03-13T01:18:26.058Z,2.42
2023-03-13T01:22:11.362Z,2.72
2023-03-13T01:25:55.583Z,4.40
2023-03-13T01:29:37.578Z,2.22
2023-03-13T01:33:19.628Z,3.92
2023-03-13T01:37:01.760Z,3.08
2023-03-13T01:40:49.872Z,3.03
2023-03-13T01:44:53.392Z,5.00
2023-03-13T01:48:44.460Z,4.35
2023-03-13T01:52:31.268Z,3.60
2023-03-13T02:00:10.070Z,3.35
2023-03-13T02:03:52.665Z,6.57
2023-03-13T02:07:42.094Z,4.65
2023-03-13T02:11:35.129Z,4.90
2023-03-13T02:15:20.226Z,7.07
2023-03-13T02:19:30.148Z,8.38
2023-03-13T02:23:45.088Z,8.65
2023-03-13T02:27:27.523Z,5.45
2023-03-13T02:31:10.781Z,6.13
2023-03-13T02:34:57.209Z,5.68
2023-03-13T02:38:51.692Z,3.40
2023-03-13T02:42:33.719Z,2.47
2023-03-13T02:46:20.880Z,4.05
2023-03-13T02:50:02.950Z,2.95
2023-03-13T02:53:46.774Z,1.40
2023-03-13T02:57:29.499Z,2.38
2023-03-13T03:01:11.824Z,2.08
2023-03-13T03:04:53.829Z,3.60
2023-03-13T03:08:36.543Z,5.40
2023-03-13T03:12:18.485Z,3.67
2023-03-13T03:16:00.552Z,6.88
2023-03-13T03:19:42.600Z,5.22
2023-03-13T03:23:24.546Z,9.90
2023-03-13T03:27:06.655Z,7.95
2023-03-13T03:30:48.612Z,10.35
2023-03-13T03:34:30.674Z,10.85
2023-03-13T03:38:12.738Z,7.05
2023-03-13T03:41:54.682Z,10.60
2023-03-13T03:45:36.653Z,9.95
2023-03-13T03:49:18.752Z,12.55
2023-03-13T03:53:00.789Z,10.23
2023-03-13T03:56:42.754Z,9.90
2023-03-13T04:00:25.009Z,14.98
2023-03-13T04:04:07.212Z,9.88
2023-03-13T04:07:49.506Z,9.13
2023-03-13T04:11:31.704Z,5.80
2023-03-13T04:15:13.860Z,10.10
2023-03-13T04:18:55.894Z,8.65
2023-03-13T04:22:37.911Z,8.50
2023-03-13T04:26:19.883Z,11.27
2023-03-13T04:30:01.962Z,13.63
2023-03-13T04:33:43.983Z,11.10
2023-03-13T04:37:25.997Z,15.20
2023-03-13T04:41:07.939Z,13.25
2023-03-13T04:44:50.130Z,18.05
2023-03-13T04:48:32.080Z,14.95
2023-03-13T04:52:14.083Z,14.98
2023-03-13T04:55:56.032Z,20.55
2023-03-13T04:59:37.987Z,22.10
2023-03-13T05:03:20.043Z,13.68
2023-03-13T05:07:01.978Z,20.42
2023-03-13T05:10:44.366Z,13.70
2023-03-13T05:14:26.511Z,24.02
2023-03-13T05:18:08.514Z,20.38
2023-03-13T05:21:50.500Z,18.40
2023-03-13T05:25:32.622Z,24.10
2023-03-13T05:29:14.572Z,16.15
2023-03-13T05:32:56.553Z,20.48
2023-03-13T05:36:38.522Z,21.65
2023-03-13T05:40:20.815Z,16.48
2023-03-13T05:44:02.792Z,18.25
2023-03-13T05:47:44.787Z,16.35
2023-03-13T05:51:26.928Z,24.48
2023-03-13T05:55:09.295Z,17.95
2023-03-13T05:58:51.330Z,22.75
2023-03-13T06:02:33.328Z,17.15
2023-03-13T06:06:15.605Z,20.02
2023-03-13T06:09:57.986Z,19.25
2023-03-13T06:13:40.035Z,21.10
2023-03-13T06:17:25.704Z,23.95
2023-03-13T06:21:07.775Z,20.13
2023-03-13T06:24:49.770Z,18.80
2023-03-13T06:28:31.747Z,16.08
2023-03-13T06:32:13.768Z,30.05
2023-03-13T06:35:57.995Z,20.77
2023-03-13T06:39:40.033Z,23.48
2023-03-13T06:43:22.514Z,30.85
2023-03-13T06:47:04.697Z,22.25
2023-03-13T06:50:46.774Z,21.13
2023-03-13T06:54:28.802Z,26.55
2023-03-13T06:58:21.768Z,26.00
2023-03-13T07:02:12.630Z,23.30
2023-03-13T07:05:59.252Z,32.47
2023-03-13T07:09:41.477Z,17.90
2023-03-13T07:13:23.605Z,21.73
2023-03-13T07:17:05.695Z,23.00
2023-03-13T07:20:56.755Z,30.17
2023-03-13T07:24:38.809Z,22.02
2023-03-13T07:28:21.734Z,22.73
2023-03-13T07:32:03.831Z,18.75
2023-03-13T07:35:52.740Z,29.95
2023-03-13T07:39:34.746Z,28.42
2023-03-13T07:43:16.825Z,19.83
2023-03-13T07:47:02.247Z,23.42
2023-03-13T07:50:44.260Z,20.83
2023-03-13T07:54:26.304Z,24.40
2023-03-13T07:58:08.302Z,23.48
2023-03-13T08:01:50.347Z,28.83
2023-03-13T08:05:32.360Z,26.60
2023-03-13T08:09:14.446Z,20.30
2023-03-13T08:12:56.477Z,21.45
2023-03-13T08:16:38.832Z,26.17
2023-03-13T08:20:20.903Z,17.95
2023-03-13T08:24:07.352Z,27.90
2023-03-13T08:27:49.326Z,22.33
2023-03-13T08:31:48.965Z,20.90
2023-03-13T08:35:31.018Z,24.48
2023-03-13T08:39:18.208Z,27.02
2023-03-13T08:43:00.249Z,22.55
2023-03-13T08:46:44.015Z,26.35
2023-03-13T08:50:26.215Z,25.42
2023-03-13T08:54:08.314Z,25.05
2023-03-13T08:57:50.312Z,24.73
2023-03-13T09:01:34.679Z,27.60
2023-03-13T09:05:16.676Z,24.27
2023-03-13T09:08:58.831Z,21.75
2023-03-13T09:12:41.862Z,20.08
2023-03-13T09:16:26.214Z,22.73
2023-03-13T09:20:09.632Z,24.70
2023-03-13T09:23:52.138Z,25.25
2023-03-13T09:27:34.397Z,21.50
2023-03-13T09:31:19.639Z,23.98
2023-03-13T09:35:01.661Z,33.08
2023-03-13T09:38:43.680Z,18.95
2023-03-13T09:42:42.713Z,24.70
2023-03-13T09:46:54.854Z,23.55
2023-03-13T09:50:43.996Z,29.92
2023-03-13T09:54:38.196Z,25.27
2023-03-13T09:58:28.604Z,21.38
2023-03-13T10:02:30.360Z,22.35
2023-03-13T10:06:25.593Z,28.13
2023-03-13T10:10:18.234Z,28.65
2023-03-13T10:14:10.459Z,24.27
2023-03-13T10:17:52.521Z,23.38
2023-03-13T10:21:36.316Z,27.83
2023-03-13T10:25:39.723Z,30.85
2023-03-13T10:29:24.755Z,28.15
2023-03-13T10:33:12.656Z,22.27
2023-03-13T10:37:02.041Z,24.80
2023-03-13T10:40:44.684Z,24.65
2023-03-13T10:44:33.458Z,24.38
2023-03-13T10:48:21.336Z,28.48
2023-03-13T10:52:05.256Z,23.13
2023-03-13T10:55:47.489Z,26.95
2023-03-13T10:59:29.528Z,17.52
2023-03-13T11:03:22.674Z,25.75
2023-03-13T11:07:12.244Z,27.40
2023-03-13T11:10:57.364Z,26.67
2023-03-13T11:14:39.336Z,24.33
2023-03-13T11:18:29.939Z,22.90
2023-03-13T11:22:14.999Z,26.00
2023-03-13T11:26:16.449Z,26.90
2023-03-13T11:30:20.471Z,26.60
2023-03-13T11:34:20.553Z,30.65
2023-03-13T11:38:08.488Z,23.80
2023-03-13T11:42:02.368Z,22.17
2023-03-13T11:45:44.349Z,14.73
2023-03-13T11:49:35.944Z,22.83
2023-03-13T11:53:26.800Z,22.92
2023-03-13T11:57:18.718Z,22.70
2023-03-13T12:01:20.169Z,31.05
2023-03-13T12:05:16.995Z,23.42
2023-03-13T12:09:21.210Z,23.98
2023-03-13T12:13:26.637Z,25.58
2023-03-13T12:17:36.258Z,31.55
2023-03-13T12:21:21.529Z,29.15
2023-03-13T12:25:24.292Z,20.55
2023-03-13T12:29:17.314Z,19.98
2023-03-13T12:33:19.707Z,29.85
2023-03-13T12:37:09.794Z,23.17
2023-03-13T12:41:10.133Z,23.08
2023-03-13T12:44:52.327Z,26.65
2023-03-13T12:48:37.397Z,23.92
2023-03-13T12:52:51.837Z,23.02
2023-03-13T12:56:55.992Z,22.35
2023-03-13T13:00:41.906Z,23.80
2023-03-13T13:04:31.276Z,24.13
2023-03-13T13:08:25.617Z,22.67
2023-03-13T13:12:21.037Z,21.27
2023-03-13T13:16:08.043Z,22.73
2023-03-13T13:19:50.606Z,16.80
2023-03-13T13:23:43.836Z,18.48
2023-03-13T13:27:37.260Z,19.02
2023-03-13T13:31:57.006Z,21.27
2023-03-13T13:35:39.250Z,20.48
2023-03-13T13:39:54.659Z,17.80
2023-03-13T13:43:45.151Z,20.23
2023-03-13T13:47:31.768Z,19.75
2023-03-13T13:51:19.758Z,22.50
2023-03-13T13:55:03.164Z,22.23
2023-03-13T13:58:46.272Z,17.27
2023-03-13T14:02:36.807Z,25.05
2023-03-13T14:06:24.279Z,22.63
2023-03-13T14:10:29.536Z,22.98
2023-03-13T14:14:18.884Z,25.10
2023-03-13T14:18:29.024Z,24.13
2023-03-13T14:22:14.469Z,19.65
2023-03-13T14:25:57.599Z,21.52
2023-03-13T14:29:39.601Z,19.48
2023-03-13T14:33:21.753Z,18.10
2023-03-13T14:37:23.693Z,20.88
2023-03-13T14:41:06.068Z,16.98
2023-03-13T14:44:50.433Z,17.80
2023-03-13T14:48:34.218Z,22.40
2023-03-13T14:52:27.941Z,21.27
2023-03-13T14:56:19.415Z,20.50
2023-03-13T15:00:42.149Z,21.58
2023-03-13T15:04:52.397Z,24.88
2023-03-13T15:08:37.294Z,16.73
2023-03-13T15:12:23.758Z,23.02
2023-03-13T15:16:19.961Z,30.67
2023-03-13T15:20:02.057Z,25.07
2023-03-13T15:23:51.425Z,20.02
2023-03-13T15:27:34.006Z,24.35
2023-03-13T15:31:16.529Z,20.17
2023-03-13T15:34:58.775Z,20.85
2023-03-13T15:38:40.776Z,26.38
2023-03-13T15:42:24.164Z,13.85
2023-03-13T15:46:11.082Z,25.55
2023-03-13T15:49:53.114Z,26.83
2023-03-13T15:53:35.918Z,24.63
2023-03-13T15:57:23.452Z,16.85
2023-03-13T16:01:05.691Z,18.13
2023-03-13T16:04:48.384Z,26.52
2023-03-13T16:08:36.173Z,18.52
2023-03-13T16:12:21.624Z,18.08
2023-03-13T16:16:14.977Z,17.15
2023-03-13T16:19:57.721Z,17.35
2023-03-13T16:23:39.711Z,18.48
2023-03-13T16:27:21.709Z,21.67
2023-03-13T16:31:03.893Z,19.33
2023-03-13T16:34:46.044Z,19.67
2023-03-13T16:38:28.028Z,19.63
2023-03-13T16:42:10.408Z,15.95
2023-03-13T16:45:52.427Z,20.50
2023-03-13T16:49:34.476Z,14.00
2023-03-13T16:53:16.450Z,17.33
2023-03-13T16:56:59.632Z,19.20
2023-03-13T17:00:41.632Z,18.27
2023-03-13T17:04:23.749Z,18.02
2023-03-13T17:08:06.264Z,18.83
2023-03-13T17:11:48.236Z,14.52
2023-03-13T17:15:30.300Z,13.90
2023-03-13T17:19:17.087Z,11.98
2023-03-13T17:23:01.130Z,12.50
2023-03-13T17:26:43.271Z,16.30
2023-03-13T17:30:30.180Z,10.65
2023-03-13T17:34:13.187Z,8.07
2023-03-13T17:37:55.134Z,17.38
2023-03-13T17:41:37.698Z,12.50
2023-03-13T17:45:21.302Z,14.30
2023-03-13T17:49:03.736Z,14.20
2023-03-13T17:52:45.896Z,12.65
2023-03-13T17:56:36.383Z,12.27
2023-03-13T18:00:31.927Z,11.07
2023-03-13T18:04:13.961Z,13.48
2023-03-13T18:07:56.748Z,14.10
2023-03-13T18:11:39.230Z,15.35
2023-03-13T18:15:22.568Z,15.68
2023-03-13T18:19:16.786Z,10.05
2023-03-13T18:23:00.809Z,13.45
2023-03-13T18:26:44.793Z,16.95
2023-03-13T18:30:27.980Z,16.08
2023-03-13T18:34:11.249Z,13.98
2023-03-13T18:37:53.284Z,15.73
2023-03-13T18:41:35.230Z,14.30
2023-03-13T18:45:19.996Z,16.90
2023-03-13T18:49:02.323Z,16.52
2023-03-13T18:52:44.314Z,17.48
2023-03-13T18:56:31.114Z,17.67
2023-03-13T19:04:00.212Z,15.88
2023-03-13T19:07:43.499Z,18.20
2023-03-13T19:11:28.657Z,19.85
2023-03-13T19:15:11.222Z,14.90
2023-03-13T19:18:54.016Z,16.88
2023-03-13T19:22:35.960Z,22.02
2023-03-13T19:26:44.639Z,19.00
2023-03-13T19:30:26.953Z,18.20
2023-03-13T19:34:09.333Z,15.90
2023-03-13T19:37:51.415Z,17.27
2023-03-13T19:41:33.401Z,14.55
2023-03-13T19:45:17.474Z,16.20
2023-03-13T19:49:01.299Z,15.75
2023-03-13T19:52:45.543Z,20.70
2023-03-13T19:56:30.323Z,14.43
2023-03-13T20:00:23.560Z,14.52
2023-03-13T20:04:05.763Z,15.73
2023-03-13T20:07:48.373Z,12.45
2023-03-13T20:11:30.756Z,16.42
2023-03-13T20:15:13.011Z,16.38
2023-03-13T20:18:55.897Z,12.18
2023-03-13T20:22:37.858Z,16.38
2023-03-13T20:26:21.662Z,10.55
2023-03-13T20:30:04.766Z,12.00
2023-03-13T20:33:46.986Z,17.30
2023-03-13T20:37:28.948Z,12.13
2023-03-13T20:41:11.864Z,16.88
2023-03-13T20:44:55.573Z,16.25
2023-03-13T20:48:39.732Z,9.80
2023-03-13T20:52:21.803Z,11.43
2023-03-13T20:56:06.565Z,20.60
2023-03-13T20:59:49.087Z,15.60
2023-03-13T21:03:35.503Z,17.75
2023-03-13T21:07:17.769Z,13.88
2023-03-13T21:10:59.778Z,14.95
2023-03-13T21:14:41.845Z,25.02
2023-03-13T21:18:23.843Z,17.15
2023-03-13T21:22:05.860Z,15.90
2023-03-13T21:25:55.370Z,14.88
2023-03-13T21:29:37.383Z,14.30
2023-03-13T21:33:19.376Z,17.67
2023-03-13T21:37:01.385Z,15.68
2023-03-13T21:40:44.059Z,12.85
2023-03-13T21:44:27.361Z,12.52
2023-03-13T21:48:09.412Z,10.45
2023-03-13T21:51:51.366Z,16.08
2023-03-13T21:55:36.106Z,17.25
2023-03-13T21:59:19.086Z,10.88
2023-03-13T22:03:01.169Z,11.13
2023-03-13T22:06:43.297Z,13.35
2023-03-13T22:10:25.503Z,13.73
2023-03-13T22:14:07.478Z,13.20
2023-03-13T22:17:49.499Z,13.40
2023-03-13T22:21:31.540Z,11.70
2023-03-13T22:25:13.493Z,8.10
2023-03-13T22:28:55.462Z,10.65
2023-03-13T22:32:37.905Z,7.88
2023-03-13T22:36:19.909Z,7.55
2023-03-13T22:40:01.925Z,9.90
2023-03-13T22:43:44.476Z,9.27
2023-03-13T22:47:26.540Z,6.15
2023-03-13T22:51:11.107Z,6.95
2023-03-13T22:54:53.054Z,5.45
2023-03-13T22:58:35.078Z,6.03
2023-03-13T23:02:17.037Z,8.70
2023-03-13T23:05:59.049Z,4.47
2023-03-13T23:09:41.081Z,2.83
2023-03-13T23:13:23.022Z,1.45
2023-03-13T23:17:04.998Z,0.95
2023-03-13T23:20:47.039Z,1.42
2023-03-13T23:24:29.056Z,0.10
2023-03-13T23:28:11.031Z,0.30
2023-03-13T23:31:55.783Z,0.32
2023-03-13T23:35:38.738Z,1.02
2023-03-13T23:39:20.736Z,0.82
2023-03-13T23:43:03.101Z,0.52
2023-03-13T23:46:45.087Z,0.35
2023-03-13T23:50:27.052Z,0.38
2023-03-13T23:54:09.073Z,2.55
2023-03-13T23:57:51.061Z,0.40
